5NK1 weather

Toggenburg Farms Airport
Newark, New York, United States

Public forecast

Using degrees Fahrenheit for public forecast. Weather courtesy of forecast.io.

METAR (pilot weather report)

Closest report is Greater Rochester International Airport, 27.1 nm (50.2 km) W. Retrieved 2019/05/19 16:41 UTC (18 minutes ago):

KROC 191641Z 04010KT 10SM SCT065 BKN080 BKN100 23/17 A2984

TAF (pilot weather forecast)

Closest forecast is Greater Rochester International Airport, 27.1 nm (50.2 km) W. Retrieved 2019/05/19 12:22 UTC (5 hours ago):

TAF KROC 191120Z 1912/2012 20012G22KT P6SM SCT100 FM191400 23008KT P6SM BKN050 FM191700 23005KT 6SM -SHRA VCTS BKN040CB FM200000 20008KT P6SM VCSH BKN100 WS015/25040KT